createdAt,value
2022-11-27T00:01:28.315Z,34.20
2022-11-27T00:03:56.896Z,34.60
2022-11-27T00:06:27.479Z,35.10
2022-11-27T00:09:00.155Z,33.90
2022-11-27T00:11:29.939Z,33.50
2022-11-27T00:13:58.502Z,32.50
2022-11-27T00:16:27.602Z,30.60
2022-11-27T00:18:55.807Z,32.10
2022-11-27T00:21:31.016Z,35.80
2022-11-27T00:24:01.009Z,34.50
2022-11-27T00:26:35.993Z,33.80
2022-11-27T00:29:06.965Z,34.10
2022-11-27T00:31:37.619Z,39.40
2022-11-27T00:34:08.901Z,37.10
2022-11-27T00:36:37.618Z,36.90
2022-11-27T00:39:05.840Z,40.70
2022-11-27T00:41:34.367Z,33.50
2022-11-27T00:44:02.195Z,38.80
2022-11-27T00:46:32.038Z,37.30
2022-11-27T00:49:03.054Z,37.50
2022-11-27T00:51:30.958Z,34.90
2022-11-27T00:53:59.570Z,36.80
2022-11-27T00:56:33.746Z,37.00
2022-11-27T00:59:02.072Z,39.30
2022-11-27T01:01:36.641Z,38.30
2022-11-27T01:04:06.951Z,38.00
2022-11-27T01:06:35.387Z,38.40
2022-11-27T01:09:04.057Z,40.30
2022-11-27T01:11:34.116Z,39.00
2022-11-27T01:14:12.283Z,40.90
2022-11-27T01:16:43.145Z,39.60
2022-11-27T01:19:13.013Z,41.50
2022-11-27T01:21:41.584Z,40.70
2022-11-27T01:24:12.219Z,42.20
2022-11-27T01:26:40.299Z,42.90
2022-11-27T01:29:08.618Z,41.70
2022-11-27T01:31:36.971Z,43.60
2022-11-27T01:34:07.980Z,41.10
2022-11-27T01:36:36.086Z,41.70
2022-11-27T01:39:04.364Z,43.20
2022-11-27T01:41:37.373Z,40.80
2022-11-27T01:44:23.615Z,42.10
2022-11-27T01:46:55.689Z,39.70
2022-11-27T01:49:32.728Z,39.70
2022-11-27T01:52:09.498Z,40.40
2022-11-27T01:54:42.457Z,42.40
2022-11-27T01:57:18.027Z,40.70
2022-11-27T01:59:48.113Z,41.40
2022-11-27T02:02:16.231Z,40.50
2022-11-27T02:04:44.178Z,38.20
2022-11-27T02:07:12.211Z,40.70
2022-11-27T02:09:40.920Z,39.70
2022-11-27T02:12:25.348Z,41.70
2022-11-27T02:15:08.800Z,40.90
2022-11-27T02:17:58.766Z,41.30
2022-11-27T02:20:44.959Z,40.10
2022-11-27T02:23:29.560Z,41.20
2022-11-27T02:26:25.018Z,42.20
2022-11-27T02:29:02.081Z,39.50
2022-11-27T02:31:46.812Z,41.80
2022-11-27T02:34:25.076Z,40.50
2022-11-27T02:37:15.828Z,39.10
2022-11-27T02:39:56.333Z,40.40
2022-11-27T02:42:26.865Z,38.80
2022-11-27T02:45:04.212Z,38.60
2022-11-27T02:47:32.631Z,40.90
2022-11-27T02:50:01.641Z,41.00
2022-11-27T02:52:31.303Z,42.90
2022-11-27T02:55:03.536Z,41.60
2022-11-27T02:57:34.012Z,41.90
2022-11-27T03:00:02.324Z,40.40
2022-11-27T03:02:49.999Z,41.90
2022-11-27T03:05:21.259Z,41.90
2022-11-27T03:08:01.227Z,42.00
2022-11-27T03:10:36.804Z,42.40
2022-11-27T03:13:04.761Z,40.40
2022-11-27T03:15:45.471Z,44.50
2022-11-27T03:18:31.128Z,39.70
2022-11-27T03:21:14.116Z,39.10
2022-11-27T03:23:41.991Z,40.10
2022-11-27T03:26:09.958Z,40.20
2022-11-27T03:28:38.531Z,41.00
2022-11-27T03:31:06.387Z,40.40
2022-11-27T03:33:34.385Z,40.00
2022-11-27T03:36:02.386Z,39.00
2022-11-27T03:38:30.214Z,39.10
2022-11-27T03:41:08.239Z,39.80
2022-11-27T03:43:46.524Z,38.50
2022-11-27T03:46:28.648Z,39.20
2022-11-27T03:49:09.168Z,40.90
2022-11-27T03:51:46.382Z,40.50
2022-11-27T03:54:24.209Z,39.10
2022-11-27T03:57:02.014Z,40.30
2022-11-27T03:59:36.049Z,41.60
2022-11-27T04:02:03.961Z,39.30
2022-11-27T04:04:31.938Z,42.70
2022-11-27T04:06:59.884Z,40.80
2022-11-27T04:09:27.662Z,40.40
2022-11-27T04:11:55.437Z,41.20
2022-11-27T04:14:23.329Z,41.90
2022-11-27T04:16:51.221Z,41.30
2022-11-27T04:19:19.107Z,42.80
2022-11-27T04:21:46.970Z,37.80
2022-11-27T04:24:15.024Z,39.90
2022-11-27T04:26:42.943Z,38.50
2022-11-27T04:29:10.720Z,40.60
2022-11-27T04:31:38.752Z,37.40
2022-11-27T04:34:06.640Z,37.80
2022-11-27T04:36:39.039Z,37.60
2022-11-27T04:39:07.530Z,36.90
2022-11-27T04:41:35.282Z,38.70
2022-11-27T04:44:03.164Z,35.70
2022-11-27T04:46:31.310Z,35.20
2022-11-27T04:48:59.260Z,37.30
2022-11-27T04:51:27.174Z,35.00
2022-11-27T04:53:55.132Z,37.00
2022-11-27T04:56:23.491Z,36.00
2022-11-27T04:58:51.321Z,35.80
2022-11-27T05:01:19.245Z,37.90
2022-11-27T05:03:48.292Z,35.20
2022-11-27T05:06:16.597Z,34.50
2022-11-27T05:08:44.428Z,34.30
2022-11-27T05:11:15.194Z,35.70
2022-11-27T05:13:44.043Z,37.10
2022-11-27T05:16:11.933Z,34.30
2022-11-27T05:18:39.888Z,37.60
2022-11-27T05:21:08.420Z,36.10
2022-11-27T05:23:36.238Z,36.60
2022-11-27T05:26:04.131Z,36.00
2022-11-27T05:28:31.943Z,35.70
2022-11-27T05:30:59.939Z,36.50
2022-11-27T05:33:27.860Z,35.10
2022-11-27T05:35:55.789Z,36.00
2022-11-27T05:38:23.602Z,34.20
2022-11-27T05:40:51.444Z,37.40
2022-11-27T05:43:19.215Z,37.60
2022-11-27T05:45:47.129Z,36.20
2022-11-27T05:48:15.053Z,36.70
2022-11-27T05:50:42.969Z,36.00
2022-11-27T05:53:10.787Z,35.00
2022-11-27T05:55:38.637Z,37.40
2022-11-27T05:58:06.539Z,36.50
2022-11-27T06:00:34.331Z,37.30
2022-11-27T06:03:02.288Z,35.30
2022-11-27T06:05:30.250Z,37.20
2022-11-27T06:07:58.159Z,37.10
2022-11-27T06:10:26.292Z,36.10
2022-11-27T06:12:55.375Z,38.00
2022-11-27T06:15:23.265Z,36.30
2022-11-27T06:17:51.213Z,37.80
2022-11-27T06:20:20.545Z,36.30
2022-11-27T06:22:48.569Z,35.70
2022-11-27T06:25:17.059Z,36.10
2022-11-27T06:27:44.988Z,37.80
2022-11-27T06:30:13.379Z,36.70
2022-11-27T06:32:41.952Z,37.30
2022-11-27T06:35:10.504Z,40.90
2022-11-27T06:37:38.371Z,37.90
2022-11-27T06:40:07.405Z,39.70
2022-11-27T06:42:35.209Z,39.90
2022-11-27T06:45:03.530Z,39.50
2022-11-27T06:47:31.404Z,39.70
2022-11-27T06:49:59.264Z,38.40
2022-11-27T06:52:27.131Z,40.70
2022-11-27T06:54:54.890Z,40.30
2022-11-27T06:57:22.712Z,43.00
2022-11-27T06:59:50.489Z,39.90
2022-11-27T07:02:18.427Z,40.50
2022-11-27T07:04:46.574Z,42.90
2022-11-27T07:07:14.629Z,42.40
2022-11-27T07:09:42.692Z,40.90
2022-11-27T07:12:10.663Z,44.30
2022-11-27T07:14:39.012Z,42.90
2022-11-27T07:17:07.335Z,40.30
2022-11-27T07:19:35.426Z,40.40
2022-11-27T07:22:03.279Z,41.90
2022-11-27T07:24:31.304Z,42.20
2022-11-27T07:26:59.125Z,42.20
2022-11-27T07:29:27.071Z,43.20
2022-11-27T07:31:55.060Z,40.10
2022-11-27T07:34:23.379Z,43.00
2022-11-27T07:36:51.276Z,40.80
2022-11-27T07:39:33.766Z,42.20
2022-11-27T07:42:36.343Z,40.50
2022-11-27T07:44:55.143Z,40.90
2022-11-27T07:47:22.981Z,41.10
2022-11-27T07:49:50.858Z,37.50
2022-11-27T07:52:18.838Z,36.60
2022-11-27T07:54:49.160Z,37.70
2022-11-27T07:57:17.158Z,36.80
2022-11-27T07:59:47.525Z,36.40
2022-11-27T08:02:16.016Z,38.20
2022-11-27T08:04:44.447Z,40.20
2022-11-27T08:07:12.824Z,38.30
2022-11-27T08:09:40.727Z,38.70
2022-11-27T08:12:08.562Z,37.00
2022-11-27T08:14:36.659Z,39.80
2022-11-27T08:17:04.528Z,37.90
2022-11-27T08:19:32.452Z,38.20
2022-11-27T08:22:00.410Z,40.50
2022-11-27T08:24:28.219Z,39.00
2022-11-27T08:26:56.078Z,38.40
2022-11-27T08:29:24.043Z,40.00
2022-11-27T08:31:52.029Z,40.60
2022-11-27T08:34:19.993Z,39.90
2022-11-27T08:36:47.863Z,41.00
2022-11-27T08:39:15.992Z,43.30
2022-11-27T08:41:44.189Z,41.30
2022-11-27T08:44:12.059Z,39.70
2022-11-27T08:46:39.999Z,40.90
2022-11-27T08:49:07.816Z,40.30
2022-11-27T08:51:37.688Z,41.90
2022-11-27T08:54:05.980Z,41.70
2022-11-27T08:56:33.863Z,43.50
2022-11-27T08:59:02.032Z,44.10
2022-11-27T09:01:32.483Z,43.00
2022-11-27T09:04:02.948Z,41.50
2022-11-27T09:06:34.808Z,41.60
2022-11-27T09:09:05.373Z,43.10
2022-11-27T09:11:34.606Z,41.20
2022-11-27T09:14:04.074Z,41.90
2022-11-27T09:16:32.490Z,46.20
2022-11-27T09:19:00.472Z,45.80
2022-11-27T09:21:30.718Z,48.10
2022-11-27T09:24:00.582Z,48.40
2022-11-27T09:26:29.910Z,48.40
2022-11-27T09:28:58.959Z,48.80
2022-11-27T09:31:27.505Z,45.40
2022-11-27T09:33:55.632Z,42.90
2022-11-27T09:36:26.026Z,47.70
2022-11-27T09:38:54.702Z,47.90
2022-11-27T09:41:41.986Z,48.60
2022-11-27T09:44:29.239Z,48.10
2022-11-27T09:47:01.409Z,44.80
2022-11-27T09:49:45.819Z,46.50
2022-11-27T09:52:33.467Z,46.00
2022-11-27T09:55:21.349Z,47.30
2022-11-27T09:58:30.775Z,48.60
2022-11-27T10:00:58.810Z,53.30
2022-11-27T10:03:28.759Z,55.60
2022-11-27T10:06:11.911Z,53.40
2022-11-27T10:09:20.244Z,52.00
2022-11-27T10:12:24.864Z,52.90
2022-11-27T10:14:52.885Z,53.10
2022-11-27T10:17:29.804Z,54.60
2022-11-27T10:20:30.175Z,53.30
2022-11-27T10:23:14.960Z,50.30
2022-11-27T10:25:52.721Z,51.20
2022-11-27T10:28:41.747Z,49.50
2022-11-27T10:31:27.107Z,49.30
2022-11-27T10:34:01.668Z,51.10
2022-11-27T10:36:45.280Z,49.70
2022-11-27T10:39:23.117Z,47.60
2022-11-27T10:42:09.142Z,44.20
2022-11-27T10:44:47.393Z,46.30
2022-11-27T10:47:16.721Z,42.70
2022-11-27T10:49:47.381Z,40.00
2022-11-27T10:52:18.174Z,40.30
2022-11-27T10:54:53.165Z,37.70
2022-11-27T10:57:42.431Z,38.10
2022-11-27T11:00:26.113Z,34.80
2022-11-27T11:03:02.562Z,31.20
2022-11-27T11:05:45.157Z,34.90
2022-11-27T11:08:20.827Z,35.40
2022-11-27T11:10:57.690Z,35.20
2022-11-27T11:13:28.005Z,35.90
2022-11-27T11:16:03.901Z,33.50
2022-11-27T11:18:34.508Z,31.50
2022-11-27T11:21:05.410Z,31.00
2022-11-27T11:23:36.505Z,32.40
2022-11-27T11:26:23.238Z,22.30
2022-11-27T11:28:54.289Z,22.00
2022-11-27T11:31:31.029Z,22.10
2022-11-27T11:34:07.807Z,20.80
2022-11-27T11:36:35.970Z,21.70
2022-11-27T11:39:04.186Z,19.70
2022-11-27T11:41:39.508Z,14.70
2022-11-27T11:44:22.721Z,14.20
2022-11-27T11:46:54.590Z,14.10
2022-11-27T11:49:27.565Z,14.10
2022-11-27T11:52:23.899Z,14.50
2022-11-27T11:55:16.256Z,14.30
2022-11-27T11:58:16.389Z,14.50
2022-11-27T12:01:11.921Z,13.70
2022-11-27T12:03:47.212Z,15.20
2022-11-27T12:06:32.969Z,21.90
2022-11-27T12:09:39.280Z,20.90
2022-11-27T12:12:48.164Z,18.80
2022-11-27T12:15:21.437Z,18.90
2022-11-27T12:18:01.570Z,18.20
2022-11-27T12:21:08.447Z,17.10
2022-11-27T12:23:39.320Z,16.90
2022-11-27T12:26:36.249Z,16.70
2022-11-27T12:29:33.710Z,14.20
2022-11-27T12:32:14.539Z,14.30
2022-11-27T12:35:16.735Z,13.30
2022-11-27T12:38:04.781Z,13.60
2022-11-27T12:40:41.533Z,12.30
2022-11-27T12:43:25.383Z,8.70
2022-11-27T12:46:02.450Z,8.30
2022-11-27T12:48:46.411Z,8.40
2022-11-27T12:51:47.357Z,8.10
2022-11-27T12:54:22.634Z,8.00
2022-11-27T12:56:57.791Z,10.40
2022-11-27T12:59:35.166Z,10.70
2022-11-27T13:02:09.069Z,10.80
2022-11-27T13:07:18.854Z,30.80
2022-11-27T13:10:03.263Z,37.10
2022-11-27T13:15:32.671Z,37.10
2022-11-27T13:18:11.213Z,40.10
2022-11-27T13:20:40.908Z,39.50
2022-11-27T13:23:09.326Z,41.70
2022-11-27T13:25:46.943Z,39.20
2022-11-27T13:28:50.254Z,38.70
2022-11-27T13:31:26.201Z,39.70
2022-11-27T13:34:05.036Z,39.00
2022-11-27T13:36:40.787Z,43.80
2022-11-27T13:39:34.473Z,43.90
2022-11-27T13:42:11.570Z,45.90
2022-11-27T13:44:44.305Z,43.40
2022-11-27T13:47:17.630Z,41.60
2022-11-27T13:49:46.581Z,45.20
2022-11-27T13:52:17.824Z,45.40
2022-11-27T13:54:55.480Z,44.50
2022-11-27T13:57:25.347Z,39.90
2022-11-27T14:00:11.943Z,40.50
2022-11-27T14:02:51.043Z,42.70
2022-11-27T14:05:33.349Z,40.60
2022-11-27T14:08:01.292Z,42.70
2022-11-27T14:10:32.757Z,42.40
2022-11-27T14:13:06.256Z,41.00
2022-11-27T14:15:39.261Z,37.30
2022-11-27T14:18:10.042Z,38.10
2022-11-27T14:20:47.915Z,35.60
2022-11-27T14:23:27.466Z,36.80
2022-11-27T14:26:24.252Z,36.30
2022-11-27T14:28:55.541Z,36.70
2022-11-27T14:31:35.936Z,36.30
2022-11-27T14:34:24.285Z,37.10
2022-11-27T14:36:53.065Z,36.60
2022-11-27T14:39:28.431Z,37.80
2022-11-27T14:42:04.528Z,38.90
2022-11-27T14:44:32.985Z,38.80
2022-11-27T14:47:03.752Z,37.20
2022-11-27T14:49:33.529Z,38.90
2022-11-27T14:52:05.640Z,35.60
2022-11-27T14:54:37.369Z,34.60
2022-11-27T14:57:07.028Z,33.00
2022-11-27T14:59:34.991Z,34.70
2022-11-27T15:02:11.841Z,37.10
2022-11-27T15:04:42.705Z,35.80
2022-11-27T15:07:38.041Z,32.40
2022-11-27T15:10:23.400Z,32.70
2022-11-27T15:12:51.316Z,35.30
2022-11-27T15:15:28.621Z,35.30
2022-11-27T15:18:01.536Z,33.70
2022-11-27T15:20:45.269Z,32.60
2022-11-27T15:23:34.083Z,33.20
2022-11-27T15:26:02.280Z,32.30
2022-11-27T15:28:51.451Z,31.70
2022-11-27T15:31:28.907Z,34.20
2022-11-27T15:34:03.957Z,31.50
2022-11-27T15:36:41.882Z,33.20
2022-11-27T15:39:44.085Z,32.70
2022-11-27T15:42:12.120Z,32.10
2022-11-27T15:44:40.420Z,31.10
2022-11-27T15:47:23.719Z,34.90
2022-11-27T15:49:51.703Z,35.90
2022-11-27T15:52:19.963Z,35.80
2022-11-27T15:54:47.855Z,33.90
2022-11-27T15:57:15.728Z,36.70
2022-11-27T15:59:43.571Z,34.10
2022-11-27T16:02:17.566Z,33.70
2022-11-27T16:04:46.458Z,37.90
2022-11-27T16:07:14.682Z,33.30
2022-11-27T16:09:42.617Z,34.50
2022-11-27T16:12:10.560Z,36.00
2022-11-27T16:14:38.695Z,35.50
2022-11-27T16:17:06.892Z,36.30
2022-11-27T16:19:34.822Z,36.70
2022-11-27T16:22:02.835Z,37.50
2022-11-27T16:24:30.902Z,38.10
2022-11-27T16:26:58.803Z,36.80
2022-11-27T16:29:26.634Z,35.10
2022-11-27T16:31:54.694Z,36.00
2022-11-27T16:34:22.820Z,36.50
2022-11-27T16:36:50.649Z,35.70
2022-11-27T16:39:18.714Z,39.00
2022-11-27T16:41:46.790Z,36.70
2022-11-27T16:44:15.526Z,38.00
2022-11-27T16:46:44.636Z,36.80
2022-11-27T16:49:15.949Z,38.00
2022-11-27T16:51:44.835Z,37.20
2022-11-27T16:54:15.514Z,38.30
2022-11-27T16:56:44.169Z,38.30
2022-11-27T16:59:14.451Z,38.40
2022-11-27T17:01:43.415Z,39.40
2022-11-27T17:04:18.596Z,38.80
2022-11-27T17:06:48.762Z,38.50
2022-11-27T17:09:17.254Z,42.30
2022-11-27T17:11:48.826Z,38.70
2022-11-27T17:14:18.580Z,40.10
2022-11-27T17:16:46.481Z,39.00
2022-11-27T17:19:16.120Z,41.40
2022-11-27T17:21:44.032Z,43.90
2022-11-27T17:24:15.744Z,41.20
2022-11-27T17:26:45.481Z,41.00
2022-11-27T17:29:15.456Z,39.50
2022-11-27T17:31:43.652Z,41.40
2022-11-27T17:34:14.302Z,43.00
2022-11-27T17:36:43.022Z,40.70
2022-11-27T17:39:15.061Z,41.80
2022-11-27T17:41:46.729Z,42.80
2022-11-27T17:44:14.685Z,42.50
2022-11-27T17:46:48.234Z,41.50
2022-11-27T17:49:16.605Z,42.20
2022-11-27T17:51:44.548Z,41.50
2022-11-27T17:54:12.397Z,41.70
2022-11-27T17:56:40.399Z,40.80
2022-11-27T17:59:08.396Z,43.20
2022-11-27T18:01:36.420Z,44.10
2022-11-27T18:04:05.495Z,42.40
2022-11-27T18:06:33.675Z,41.50
2022-11-27T18:09:01.882Z,43.70
2022-11-27T18:11:32.038Z,44.80
2022-11-27T18:14:00.388Z,41.40
2022-11-27T18:16:35.998Z,42.80
2022-11-27T18:19:07.797Z,43.10
2022-11-27T18:21:38.045Z,40.90
2022-11-27T18:24:24.035Z,43.10
2022-11-27T18:27:09.855Z,43.60
2022-11-27T18:29:42.524Z,39.40
2022-11-27T18:32:12.366Z,38.70
2022-11-27T18:34:41.204Z,37.20
2022-11-27T18:37:10.209Z,37.60
2022-11-27T18:39:39.528Z,37.60
2022-11-27T18:42:08.049Z,37.40
2022-11-27T18:44:39.598Z,36.10
2022-11-27T18:47:11.516Z,38.20
2022-11-27T18:49:40.732Z,37.00
2022-11-27T18:52:09.378Z,36.90
2022-11-27T18:54:37.593Z,38.40
2022-11-27T18:57:07.215Z,35.70
2022-11-27T18:59:35.438Z,35.40
2022-11-27T19:02:04.815Z,34.40
2022-11-27T19:04:37.584Z,36.80
2022-11-27T19:07:05.781Z,36.00
2022-11-27T19:09:33.715Z,36.50
2022-11-27T19:12:01.798Z,36.90
2022-11-27T19:14:29.774Z,38.40
2022-11-27T19:16:58.659Z,37.80
2022-11-27T19:19:53.430Z,37.60
2022-11-27T19:22:17.009Z,36.80
2022-11-27T19:24:44.808Z,36.50
2022-11-27T19:27:12.841Z,37.80
2022-11-27T19:29:40.982Z,38.50
2022-11-27T19:32:09.411Z,36.60
2022-11-27T19:34:37.374Z,38.40
2022-11-27T19:37:05.290Z,38.30
2022-11-27T19:39:33.646Z,36.70
2022-11-27T19:42:01.568Z,37.30
2022-11-27T19:44:29.582Z,37.80
2022-11-27T19:46:57.513Z,38.80
2022-11-27T19:49:26.249Z,37.50
2022-11-27T19:51:54.240Z,36.10
2022-11-27T19:54:22.717Z,39.50
2022-11-27T19:56:51.074Z,37.80
2022-11-27T19:59:25.374Z,35.80
2022-11-27T20:01:53.896Z,36.00
2022-11-27T20:04:21.863Z,37.40
2022-11-27T20:06:52.284Z,35.80
2022-11-27T20:09:20.201Z,36.70
2022-11-27T20:11:48.104Z,36.90
2022-11-27T20:14:16.036Z,34.80
2022-11-27T20:16:44.201Z,35.90
2022-11-27T20:19:12.098Z,37.80
2022-11-27T20:21:40.190Z,38.10
2022-11-27T20:24:08.135Z,39.10
2022-11-27T20:26:41.183Z,37.70
2022-11-27T20:29:12.279Z,34.10
2022-11-27T20:31:43.878Z,37.80
2022-11-27T20:34:18.455Z,39.60
2022-11-27T20:36:47.596Z,39.80
2022-11-27T20:39:20.959Z,37.20
2022-11-27T20:41:51.402Z,37.80
2022-11-27T20:44:20.189Z,39.60
2022-11-27T20:46:49.305Z,35.80
2022-11-27T20:49:17.424Z,35.70
2022-11-27T20:51:46.726Z,34.20
2022-11-27T20:54:15.183Z,36.30
2022-11-27T20:56:45.699Z,35.00
2022-11-27T20:59:13.772Z,34.40
2022-11-27T21:01:41.920Z,35.70
2022-11-27T21:04:20.362Z,37.20
2022-11-27T21:06:48.984Z,36.70
2022-11-27T21:09:18.014Z,37.70
2022-11-27T21:11:47.678Z,35.00
2022-11-27T21:14:16.993Z,37.80
2022-11-27T21:16:48.616Z,40.20
2022-11-27T21:19:19.967Z,36.80
2022-11-27T21:21:48.621Z,41.10
2022-11-27T21:24:17.442Z,39.50
2022-11-27T21:26:46.415Z,39.50
2022-11-27T21:29:15.545Z,38.20
2022-11-27T21:31:47.140Z,37.70
2022-11-27T21:34:15.612Z,35.80
2022-11-27T21:36:43.572Z,39.50
2022-11-27T21:39:12.730Z,37.50
2022-11-27T21:41:40.695Z,36.60
2022-11-27T21:44:08.579Z,37.40
2022-11-27T21:46:36.543Z,41.20
2022-11-27T21:49:04.601Z,37.10
2022-11-27T21:51:32.622Z,37.50
2022-11-27T21:54:00.542Z,34.80
2022-11-27T21:56:29.666Z,31.90
2022-11-27T21:58:57.568Z,35.20
2022-11-27T22:01:26.746Z,33.40
2022-11-27T22:03:57.552Z,34.00
2022-11-27T22:06:28.952Z,36.50
2022-11-27T22:08:58.762Z,34.60
2022-11-27T22:11:30.395Z,34.70
2022-11-27T22:14:04.952Z,34.50
2022-11-27T22:16:42.790Z,37.50
2022-11-27T22:19:14.416Z,38.80
2022-11-27T22:21:43.444Z,39.70
2022-11-27T22:24:17.952Z,37.80
2022-11-27T22:26:48.323Z,39.00
2022-11-27T22:29:16.416Z,35.10
2022-11-27T22:31:44.430Z,34.70
2022-11-27T22:34:12.282Z,35.70
2022-11-27T22:36:40.214Z,37.40
2022-11-27T22:39:08.832Z,35.30
2022-11-27T22:41:39.074Z,33.10
2022-11-27T22:44:15.047Z,34.60
2022-11-27T22:46:44.121Z,35.50
2022-11-27T22:49:15.616Z,35.50
2022-11-27T22:51:43.542Z,35.60
2022-11-27T22:54:13.838Z,35.00
2022-11-27T22:56:41.733Z,35.40
2022-11-27T23:01:58.244Z,35.30
2022-11-27T23:04:26.125Z,35.60
2022-11-27T23:06:54.199Z,34.80
2022-11-27T23:09:22.459Z,32.90
2022-11-27T23:11:50.381Z,33.50
2022-11-27T23:14:18.710Z,33.60
2022-11-27T23:16:46.693Z,35.80
2022-11-27T23:19:14.748Z,33.80
2022-11-27T23:21:42.739Z,35.70
2022-11-27T23:24:14.241Z,35.10
2022-11-27T23:26:43.542Z,34.40
2022-11-27T23:29:11.793Z,33.70
2022-11-27T23:31:40.271Z,34.30
2022-11-27T23:34:13.179Z,35.60
2022-11-27T23:36:41.015Z,36.00
2022-11-27T23:39:09.445Z,35.70
2022-11-27T23:41:37.275Z,33.90
2022-11-27T23:44:05.754Z,35.70
2022-11-27T23:46:33.550Z,32.40
2022-11-27T23:49:01.490Z,33.30
2022-11-27T23:51:31.686Z,33.20
2022-11-27T23:54:01.405Z,34.10
2022-11-27T23:56:31.770Z,36.20
